Hagersville, Canada
Current Conditions -  °F | °C
As of 3:00 AM on Tuesday 21 Oct 2014 (Local Time) from CYHM Reporting Station
Haze Haze  
Wind Chill: 50°   Ceiling: 4600
Heat Index: 50°   Visibility: 5mi
Dew Point: 48°   Wind: 2mph
Humidity: 94%   Direction: 250°WSW
Pressure: 29.79"   Gusts: NA
Location:  42.95°N, 80.05°W
Report Text: CYHM 210700Z 25002KT 5SM BR FEW017 BKN046 OVC072 10/09 A2979 RMK SC1SC5AC2 SLP092
Loading
Personal Weather Stations






























Interactive Weather Map
Tropical Storm Tracking
New forecast layout! Learn more

10-Day Weather Forecast

Advertisements
Track Severe Weather on mobile